sensor_id;sensor_type;location;lat;lon;timestamp;P1;durP1;ratioP1;P2;durP2;ratioP2
60076;SDS011;45950;45.208;20.374;2023-08-06T00:00:49;5.47;;;2.80;;
60076;SDS011;45950;45.208;20.374;2023-08-06T00:03:15;5.60;;;2.72;;
60076;SDS011;45950;45.208;20.374;2023-08-06T00:05:42;3.70;;;2.60;;
60076;SDS011;45950;45.208;20.374;2023-08-06T00:08:09;3.72;;;2.30;;
60076;SDS011;45950;45.208;20.374;2023-08-06T00:10:36;3.45;;;2.15;;
60076;SDS011;45950;45.208;20.374;2023-08-06T00:13:02;2.88;;;2.25;;
60076;SDS011;45950;45.208;20.374;2023-08-06T00:15:29;5.03;;;2.92;;
60076;SDS011;45950;45.208;20.374;2023-08-06T00:17:57;5.72;;;3.15;;
60076;SDS011;45950;45.208;20.374;2023-08-06T00:20:23;4.93;;;2.75;;
60076;SDS011;45950;45.208;20.374;2023-08-06T00:22:50;6.30;;;3.20;;
60076;SDS011;45950;45.208;20.374;2023-08-06T00:25:25;4.82;;;3.15;;
60076;SDS011;45950;45.208;20.374;2023-08-06T00:27:52;4.10;;;2.95;;
60076;SDS011;45950;45.208;20.374;2023-08-06T00:30:33;4.40;;;3.15;;
60076;SDS011;45950;45.208;20.374;2023-08-06T00:33:01;5.25;;;3.53;;
60076;SDS011;45950;45.208;20.374;2023-08-06T00:35:28;4.03;;;3.05;;
60076;SDS011;45950;45.208;20.374;2023-08-06T00:37:56;6.53;;;4.40;;
60076;SDS011;45950;45.208;20.374;2023-08-06T00:40:22;4.78;;;3.92;;
60076;SDS011;45950;45.208;20.374;2023-08-06T00:42:49;5.95;;;5.35;;
60076;SDS011;45950;45.208;20.374;2023-08-06T00:45:15;7.43;;;5.95;;
60076;SDS011;45950;45.208;20.374;2023-08-06T00:47:42;6.60;;;5.85;;
60076;SDS011;45950;45.208;20.374;2023-08-06T00:50:10;7.22;;;5.90;;
60076;SDS011;45950;45.208;20.374;2023-08-06T00:52:37;6.70;;;5.95;;
60076;SDS011;45950;45.208;20.374;2023-08-06T00:55:03;6.75;;;6.05;;
60076;SDS011;45950;45.208;20.374;2023-08-06T00:57:30;6.30;;;5.68;;
60076;SDS011;45950;45.208;20.374;2023-08-06T00:59:57;6.95;;;6.18;;
60076;SDS011;45950;45.208;20.374;2023-08-06T01:02:24;6.63;;;5.63;;
60076;SDS011;45950;45.208;20.374;2023-08-06T01:04:50;7.18;;;6.15;;
60076;SDS011;45950;45.208;20.374;2023-08-06T01:07:21;6.00;;;4.75;;
60076;SDS011;45950;45.208;20.374;2023-08-06T01:09:52;5.95;;;5.35;;
60076;SDS011;45950;45.208;20.374;2023-08-06T01:12:22;6.03;;;4.60;;
60076;SDS011;45950;45.208;20.374;2023-08-06T01:14:53;7.57;;;6.30;;
60076;SDS011;45950;45.208;20.374;2023-08-06T01:17:21;5.57;;;5.07;;
60076;SDS011;45950;45.208;20.374;2023-08-06T01:19:48;6.47;;;5.88;;
60076;SDS011;45950;45.208;20.374;2023-08-06T01:22:16;6.57;;;5.72;;
60076;SDS011;45950;45.208;20.374;2023-08-06T01:24:43;5.32;;;4.82;;
60076;SDS011;45950;45.208;20.374;2023-08-06T01:27:14;5.72;;;4.75;;
60076;SDS011;45950;45.208;20.374;2023-08-06T01:29:43;5.93;;;5.28;;
60076;SDS011;45950;45.208;20.374;2023-08-06T01:32:11;5.78;;;5.18;;
60076;SDS011;45950;45.208;20.374;2023-08-06T01:34:39;6.57;;;4.93;;
60076;SDS011;45950;45.208;20.374;2023-08-06T01:37:05;5.18;;;4.25;;
60076;SDS011;45950;45.208;20.374;2023-08-06T01:39:34;6.10;;;4.10;;
60076;SDS011;45950;45.208;20.374;2023-08-06T01:42:00;9.93;;;8.82;;
60076;SDS011;45950;45.208;20.374;2023-08-06T01:44:27;12.18;;;10.70;;
60076;SDS011;45950;45.208;20.374;2023-08-06T01:46:54;8.00;;;6.57;;
60076;SDS011;45950;45.208;20.374;2023-08-06T01:49:20;6.63;;;5.93;;
60076;SDS011;45950;45.208;20.374;2023-08-06T01:51:47;10.38;;;7.47;;
60076;SDS011;45950;45.208;20.374;2023-08-06T01:54:13;7.55;;;6.72;;
60076;SDS011;45950;45.208;20.374;2023-08-06T01:56:41;8.18;;;6.70;;
60076;SDS011;45950;45.208;20.374;2023-08-06T02:01:57;9.38;;;7.45;;
60076;SDS011;45950;45.208;20.374;2023-08-06T02:04:24;8.98;;;8.07;;
60076;SDS011;45950;45.208;20.374;2023-08-06T02:06:50;12.18;;;10.82;;
60076;SDS011;45950;45.208;20.374;2023-08-06T02:09:17;11.50;;;10.30;;
60076;SDS011;45950;45.208;20.374;2023-08-06T02:11:45;12.63;;;8.68;;
60076;SDS011;45950;45.208;20.374;2023-08-06T02:14:12;11.07;;;9.93;;
60076;SDS011;45950;45.208;20.374;2023-08-06T02:16:38;12.95;;;9.07;;
60076;SDS011;45950;45.208;20.374;2023-08-06T02:19:05;14.60;;;12.48;;
60076;SDS011;45950;45.208;20.374;2023-08-06T02:21:31;11.07;;;9.93;;
60076;SDS011;45950;45.208;20.374;2023-08-06T02:23:58;12.55;;;10.80;;
60076;SDS011;45950;45.208;20.374;2023-08-06T02:26:24;11.48;;;9.80;;
60076;SDS011;45950;45.208;20.374;2023-08-06T02:28:52;12.02;;;10.07;;
60076;SDS011;45950;45.208;20.374;2023-08-06T02:31:19;12.30;;;11.00;;
60076;SDS011;45950;45.208;20.374;2023-08-06T02:33:46;13.18;;;10.85;;
60076;SDS011;45950;45.208;20.374;2023-08-06T02:36:12;17.08;;;12.15;;
60076;SDS011;45950;45.208;20.374;2023-08-06T02:38:39;14.52;;;11.40;;
60076;SDS011;45950;45.208;20.374;2023-08-06T02:41:06;15.50;;;13.23;;
60076;SDS011;45950;45.208;20.374;2023-08-06T02:43:32;11.25;;;9.73;;
60076;SDS011;45950;45.208;20.374;2023-08-06T02:46:00;13.02;;;11.23;;
60076;SDS011;45950;45.208;20.374;2023-08-06T02:48:27;12.40;;;10.82;;
60076;SDS011;45950;45.208;20.374;2023-08-06T02:50:56;13.10;;;10.68;;
60076;SDS011;45950;45.208;20.374;2023-08-06T02:53:23;13.48;;;11.20;;
60076;SDS011;45950;45.208;20.374;2023-08-06T02:55:50;11.90;;;9.88;;
60076;SDS011;45950;45.208;20.374;2023-08-06T02:58:19;12.05;;;10.00;;
60076;SDS011;45950;45.208;20.374;2023-08-06T03:00:58;12.35;;;10.55;;
60076;SDS011;45950;45.208;20.374;2023-08-06T03:03:26;11.45;;;9.60;;
60076;SDS011;45950;45.208;20.374;2023-08-06T03:08:55;9.95;;;8.75;;
60076;SDS011;45950;45.208;20.374;2023-08-06T03:11:22;15.55;;;13.07;;
60076;SDS011;45950;45.208;20.374;2023-08-06T03:13:48;13.25;;;11.48;;
60076;SDS011;45950;45.208;20.374;2023-08-06T03:16:15;13.80;;;11.00;;
60076;SDS011;45950;45.208;20.374;2023-08-06T03:18:43;15.75;;;11.82;;
60076;SDS011;45950;45.208;20.374;2023-08-06T03:21:10;13.45;;;10.20;;
60076;SDS011;45950;45.208;20.374;2023-08-06T03:23:36;13.20;;;11.05;;
60076;SDS011;45950;45.208;20.374;2023-08-06T03:26:03;13.43;;;11.32;;
60076;SDS011;45950;45.208;20.374;2023-08-06T03:28:29;15.90;;;12.70;;
60076;SDS011;45950;45.208;20.374;2023-08-06T03:33:47;17.85;;;14.20;;
60076;SDS011;45950;45.208;20.374;2023-08-06T03:36:13;13.38;;;11.27;;
60076;SDS011;45950;45.208;20.374;2023-08-06T03:38:47;13.38;;;11.10;;
60076;SDS011;45950;45.208;20.374;2023-08-06T03:41:13;13.30;;;11.77;;
60076;SDS011;45950;45.208;20.374;2023-08-06T03:43:40;16.73;;;13.48;;
60076;SDS011;45950;45.208;20.374;2023-08-06T03:46:20;14.07;;;11.40;;
60076;SDS011;45950;45.208;20.374;2023-08-06T03:48:48;14.95;;;12.52;;
60076;SDS011;45950;45.208;20.374;2023-08-06T03:51:15;13.13;;;11.10;;
60076;SDS011;45950;45.208;20.374;2023-08-06T03:53:41;13.35;;;10.63;;
60076;SDS011;45950;45.208;20.374;2023-08-06T03:56:08;12.65;;;10.23;;
60076;SDS011;45950;45.208;20.374;2023-08-06T03:58:34;12.00;;;10.18;;
60076;SDS011;45950;45.208;20.374;2023-08-06T04:01:01;13.63;;;11.98;;
60076;SDS011;45950;45.208;20.374;2023-08-06T04:03:28;16.23;;;13.23;;
60076;SDS011;45950;45.208;20.374;2023-08-06T04:05:56;16.48;;;12.75;;
60076;SDS011;45950;45.208;20.374;2023-08-06T04:08:22;16.55;;;13.25;;
60076;SDS011;45950;45.208;20.374;2023-08-06T04:10:49;16.60;;;13.02;;
60076;SDS011;45950;45.208;20.374;2023-08-06T04:13:17;18.83;;;14.85;;
60076;SDS011;45950;45.208;20.374;2023-08-06T04:15:43;20.35;;;14.15;;
60076;SDS011;45950;45.208;20.374;2023-08-06T04:18:10;18.25;;;14.07;;
60076;SDS011;45950;45.208;20.374;2023-08-06T04:20:42;15.85;;;12.15;;
60076;SDS011;45950;45.208;20.374;2023-08-06T04:23:10;14.80;;;11.35;;
60076;SDS011;45950;45.208;20.374;2023-08-06T04:25:37;16.52;;;13.05;;
60076;SDS011;45950;45.208;20.374;2023-08-06T04:28:06;17.50;;;14.48;;
60076;SDS011;45950;45.208;20.374;2023-08-06T04:30:32;16.52;;;12.30;;
60076;SDS011;45950;45.208;20.374;2023-08-06T04:32:59;16.90;;;12.88;;
60076;SDS011;45950;45.208;20.374;2023-08-06T04:38:28;16.10;;;13.32;;
60076;SDS011;45950;45.208;20.374;2023-08-06T04:40:55;17.90;;;14.35;;
60076;SDS011;45950;45.208;20.374;2023-08-06T04:43:22;18.67;;;14.00;;
60076;SDS011;45950;45.208;20.374;2023-08-06T04:45:49;21.40;;;16.50;;
60076;SDS011;45950;45.208;20.374;2023-08-06T04:48:15;20.88;;;15.95;;
60076;SDS011;45950;45.208;20.374;2023-08-06T04:50:45;19.77;;;15.35;;
60076;SDS011;45950;45.208;20.374;2023-08-06T04:53:12;17.63;;;13.38;;
60076;SDS011;45950;45.208;20.374;2023-08-06T04:55:40;18.88;;;13.77;;
60076;SDS011;45950;45.208;20.374;2023-08-06T04:58:06;17.38;;;13.88;;
60076;SDS011;45950;45.208;20.374;2023-08-06T05:00:52;20.08;;;14.43;;
60076;SDS011;45950;45.208;20.374;2023-08-06T05:03:19;16.02;;;12.57;;
60076;SDS011;45950;45.208;20.374;2023-08-06T05:05:46;22.45;;;19.33;;
60076;SDS011;45950;45.208;20.374;2023-08-06T05:08:13;23.85;;;17.15;;
60076;SDS011;45950;45.208;20.374;2023-08-06T05:10:43;17.33;;;13.45;;
60076;SDS011;45950;45.208;20.374;2023-08-06T05:13:10;22.13;;;16.70;;
60076;SDS011;45950;45.208;20.374;2023-08-06T05:15:36;28.27;;;19.42;;
60076;SDS011;45950;45.208;20.374;2023-08-06T05:18:04;30.13;;;20.98;;
60076;SDS011;45950;45.208;20.374;2023-08-06T05:20:31;27.38;;;20.48;;
60076;SDS011;45950;45.208;20.374;2023-08-06T05:23:04;21.60;;;16.38;;
60076;SDS011;45950;45.208;20.374;2023-08-06T05:25:31;21.80;;;16.98;;
60076;SDS011;45950;45.208;20.374;2023-08-06T05:27:59;20.10;;;16.27;;
60076;SDS011;45950;45.208;20.374;2023-08-06T05:30:26;25.48;;;18.05;;
60076;SDS011;45950;45.208;20.374;2023-08-06T05:32:53;22.70;;;19.25;;
60076;SDS011;45950;45.208;20.374;2023-08-06T05:35:20;23.50;;;17.98;;
60076;SDS011;45950;45.208;20.374;2023-08-06T05:37:47;24.80;;;18.27;;
60076;SDS011;45950;45.208;20.374;2023-08-06T05:40:13;23.17;;;18.42;;
60076;SDS011;45950;45.208;20.374;2023-08-06T05:42:40;21.65;;;17.77;;
60076;SDS011;45950;45.208;20.374;2023-08-06T05:45:09;20.75;;;17.05;;
60076;SDS011;45950;45.208;20.374;2023-08-06T05:47:36;27.38;;;21.95;;
60076;SDS011;45950;45.208;20.374;2023-08-06T05:52:59;20.00;;;16.55;;
60076;SDS011;45950;45.208;20.374;2023-08-06T05:55:25;19.55;;;16.05;;
60076;SDS011;45950;45.208;20.374;2023-08-06T05:57:52;14.02;;;11.93;;
60076;SDS011;45950;45.208;20.374;2023-08-06T06:00:20;17.70;;;14.40;;
60076;SDS011;45950;45.208;20.374;2023-08-06T06:02:46;12.10;;;10.80;;
60076;SDS011;45950;45.208;20.374;2023-08-06T06:05:13;19.30;;;14.38;;
60076;SDS011;45950;45.208;20.374;2023-08-06T06:07:40;16.65;;;14.90;;
60076;SDS011;45950;45.208;20.374;2023-08-06T06:10:07;14.98;;;13.13;;
60076;SDS011;45950;45.208;20.374;2023-08-06T06:12:40;16.10;;;13.30;;
60076;SDS011;45950;45.208;20.374;2023-08-06T06:15:07;13.20;;;11.35;;
60076;SDS011;45950;45.208;20.374;2023-08-06T06:17:35;16.33;;;13.70;;
60076;SDS011;45950;45.208;20.374;2023-08-06T06:20:02;15.85;;;14.25;;
60076;SDS011;45950;45.208;20.374;2023-08-06T06:22:29;16.42;;;14.77;;
60076;SDS011;45950;45.208;20.374;2023-08-06T06:27:49;13.15;;;11.45;;
60076;SDS011;45950;45.208;20.374;2023-08-06T06:30:16;14.18;;;12.13;;
60076;SDS011;45950;45.208;20.374;2023-08-06T06:32:46;23.70;;;18.58;;
60076;SDS011;45950;45.208;20.374;2023-08-06T06:35:12;19.40;;;17.40;;
60076;SDS011;45950;45.208;20.374;2023-08-06T06:37:39;18.00;;;14.13;;
60076;SDS011;45950;45.208;20.374;2023-08-06T06:40:16;12.65;;;10.95;;
60076;SDS011;45950;45.208;20.374;2023-08-06T06:42:42;14.90;;;12.75;;
60076;SDS011;45950;45.208;20.374;2023-08-06T06:45:09;15.18;;;13.18;;
60076;SDS011;45950;45.208;20.374;2023-08-06T06:47:35;25.73;;;20.30;;
60076;SDS011;45950;45.208;20.374;2023-08-06T06:52:53;16.17;;;14.10;;
60076;SDS011;45950;45.208;20.374;2023-08-06T06:55:19;21.13;;;18.83;;
60076;SDS011;45950;45.208;20.374;2023-08-06T06:57:53;23.58;;;20.80;;
60076;SDS011;45950;45.208;20.374;2023-08-06T07:00:20;17.88;;;15.32;;
60076;SDS011;45950;45.208;20.374;2023-08-06T07:02:46;20.00;;;16.13;;
60076;SDS011;45950;45.208;20.374;2023-08-06T07:08:05;21.45;;;19.35;;
60076;SDS011;45950;45.208;20.374;2023-08-06T07:10:31;17.35;;;15.43;;
60076;SDS011;45950;45.208;20.374;2023-08-06T07:13:08;19.23;;;15.18;;
60076;SDS011;45950;45.208;20.374;2023-08-06T07:15:34;18.98;;;16.98;;
60076;SDS011;45950;45.208;20.374;2023-08-06T07:18:01;21.45;;;19.25;;
60076;SDS011;45950;45.208;20.374;2023-08-06T07:20:28;20.58;;;17.67;;
60076;SDS011;45950;45.208;20.374;2023-08-06T07:22:56;19.75;;;17.08;;
60076;SDS011;45950;45.208;20.374;2023-08-06T07:25:24;19.58;;;16.05;;
60076;SDS011;45950;45.208;20.374;2023-08-06T07:30:53;19.00;;;17.00;;
60076;SDS011;45950;45.208;20.374;2023-08-06T07:33:20;17.85;;;15.98;;
60076;SDS011;45950;45.208;20.374;2023-08-06T07:35:46;18.65;;;16.85;;
60076;SDS011;45950;45.208;20.374;2023-08-06T07:38:13;18.52;;;16.63;;
60076;SDS011;45950;45.208;20.374;2023-08-06T07:40:41;14.80;;;13.32;;
60076;SDS011;45950;45.208;20.374;2023-08-06T07:43:08;15.23;;;13.70;;
60076;SDS011;45950;45.208;20.374;2023-08-06T07:45:35;14.77;;;13.27;;
60076;SDS011;45950;45.208;20.374;2023-08-06T07:48:02;14.20;;;12.63;;
60076;SDS011;45950;45.208;20.374;2023-08-06T07:50:29;13.00;;;9.93;;
60076;SDS011;45950;45.208;20.374;2023-08-06T07:52:55;13.18;;;11.10;;
60076;SDS011;45950;45.208;20.374;2023-08-06T07:55:22;10.65;;;9.55;;
60076;SDS011;45950;45.208;20.374;2023-08-06T07:57:50;10.63;;;9.55;;
60076;SDS011;45950;45.208;20.374;2023-08-06T08:00:16;10.20;;;8.82;;
60076;SDS011;45950;45.208;20.374;2023-08-06T08:02:44;8.98;;;7.53;;
60076;SDS011;45950;45.208;20.374;2023-08-06T08:05:14;11.25;;;10.05;;
60076;SDS011;45950;45.208;20.374;2023-08-06T08:07:41;8.85;;;7.95;;
60076;SDS011;45950;45.208;20.374;2023-08-06T08:10:07;9.80;;;8.77;;
60076;SDS011;45950;45.208;20.374;2023-08-06T08:12:34;9.90;;;8.95;;
60076;SDS011;45950;45.208;20.374;2023-08-06T08:15:03;9.38;;;8.57;;
60076;SDS011;45950;45.208;20.374;2023-08-06T08:17:29;9.02;;;8.23;;
60076;SDS011;45950;45.208;20.374;2023-08-06T08:19:57;9.88;;;7.95;;
60076;SDS011;45950;45.208;20.374;2023-08-06T08:22:23;8.77;;;7.95;;
60076;SDS011;45950;45.208;20.374;2023-08-06T08:24:50;8.02;;;6.25;;
60076;SDS011;45950;45.208;20.374;2023-08-06T08:27:16;7.85;;;7.05;;
60076;SDS011;45950;45.208;20.374;2023-08-06T08:29:43;8.13;;;7.05;;
60076;SDS011;45950;45.208;20.374;2023-08-06T08:32:11;7.35;;;6.65;;
60076;SDS011;45950;45.208;20.374;2023-08-06T08:34:38;8.32;;;7.40;;
60076;SDS011;45950;45.208;20.374;2023-08-06T08:37:04;9.30;;;8.20;;
60076;SDS011;45950;45.208;20.374;2023-08-06T08:39:32;9.63;;;8.70;;
60076;SDS011;45950;45.208;20.374;2023-08-06T08:41:58;10.98;;;8.50;;
60076;SDS011;45950;45.208;20.374;2023-08-06T08:44:26;11.77;;;10.57;;
60076;SDS011;45950;45.208;20.374;2023-08-06T08:46:54;11.55;;;10.35;;
60076;SDS011;45950;45.208;20.374;2023-08-06T08:49:22;16.27;;;10.40;;
60076;SDS011;45950;45.208;20.374;2023-08-06T08:51:49;15.85;;;12.18;;
60076;SDS011;45950;45.208;20.374;2023-08-06T08:54:17;9.98;;;8.93;;
60076;SDS011;45950;45.208;20.374;2023-08-06T08:56:44;11.00;;;8.77;;
60076;SDS011;45950;45.208;20.374;2023-08-06T08:59:11;11.00;;;9.90;;
60076;SDS011;45950;45.208;20.374;2023-08-06T09:01:37;11.60;;;10.50;;
60076;SDS011;45950;45.208;20.374;2023-08-06T09:04:05;7.30;;;6.32;;
60076;SDS011;45950;45.208;20.374;2023-08-06T09:06:35;8.90;;;8.02;;
60076;SDS011;45950;45.208;20.374;2023-08-06T09:09:06;5.10;;;4.40;;
60076;SDS011;45950;45.208;20.374;2023-08-06T09:11:34;5.68;;;4.90;;
60076;SDS011;45950;45.208;20.374;2023-08-06T09:14:05;5.90;;;4.65;;
60076;SDS011;45950;45.208;20.374;2023-08-06T09:16:32;4.78;;;4.10;;
60076;SDS011;45950;45.208;20.374;2023-08-06T09:19:00;4.07;;;2.70;;
60076;SDS011;45950;45.208;20.374;2023-08-06T09:21:32;4.35;;;3.03;;
60076;SDS011;45950;45.208;20.374;2023-08-06T09:24:00;3.47;;;2.90;;
60076;SDS011;45950;45.208;20.374;2023-08-06T09:26:32;3.00;;;2.60;;
60076;SDS011;45950;45.208;20.374;2023-08-06T09:28:59;3.13;;;2.20;;
60076;SDS011;45950;45.208;20.374;2023-08-06T09:31:28;3.17;;;2.45;;
60076;SDS011;45950;45.208;20.374;2023-08-06T09:33:59;3.97;;;2.03;;
60076;SDS011;45950;45.208;20.374;2023-08-06T09:36:27;2.70;;;2.28;;
60076;SDS011;45950;45.208;20.374;2023-08-06T09:38:53;3.58;;;2.08;;
60076;SDS011;45950;45.208;20.374;2023-08-06T09:41:27;2.75;;;2.38;;
60076;SDS011;45950;45.208;20.374;2023-08-06T09:43:54;3.13;;;1.80;;
60076;SDS011;45950;45.208;20.374;2023-08-06T09:46:22;3.10;;;1.77;;
60076;SDS011;45950;45.208;20.374;2023-08-06T09:48:49;2.70;;;2.10;;
60076;SDS011;45950;45.208;20.374;2023-08-06T09:51:16;3.17;;;1.75;;
60076;SDS011;45950;45.208;20.374;2023-08-06T09:53:43;2.28;;;1.77;;
60076;SDS011;45950;45.208;20.374;2023-08-06T09:56:10;2.50;;;1.80;;
60076;SDS011;45950;45.208;20.374;2023-08-06T10:01:39;2.75;;;1.65;;
60076;SDS011;45950;45.208;20.374;2023-08-06T10:04:06;2.35;;;1.70;;
60076;SDS011;45950;45.208;20.374;2023-08-06T10:06:35;2.70;;;1.77;;
60076;SDS011;45950;45.208;20.374;2023-08-06T10:09:02;1.83;;;1.58;;
60076;SDS011;45950;45.208;20.374;2023-08-06T10:11:29;2.78;;;1.45;;
60076;SDS011;45950;45.208;20.374;2023-08-06T10:13:57;2.20;;;1.65;;
60076;SDS011;45950;45.208;20.374;2023-08-06T10:16:24;2.20;;;1.60;;
60076;SDS011;45950;45.208;20.374;2023-08-06T10:18:53;1.73;;;1.23;;
60076;SDS011;45950;45.208;20.374;2023-08-06T10:21:20;4.18;;;1.58;;
60076;SDS011;45950;45.208;20.374;2023-08-06T10:23:49;1.33;;;1.20;;
60076;SDS011;45950;45.208;20.374;2023-08-06T10:26:19;2.60;;;1.60;;
60076;SDS011;45950;45.208;20.374;2023-08-06T10:28:46;2.20;;;1.55;;
60076;SDS011;45950;45.208;20.374;2023-08-06T10:31:12;1.80;;;1.25;;
60076;SDS011;45950;45.208;20.374;2023-08-06T10:33:42;1.70;;;1.00;;
60076;SDS011;45950;45.208;20.374;2023-08-06T10:36:11;1.70;;;1.30;;
60076;SDS011;45950;45.208;20.374;2023-08-06T10:38:44;2.55;;;1.50;;
60076;SDS011;45950;45.208;20.374;2023-08-06T10:41:15;1.98;;;1.25;;
60076;SDS011;45950;45.208;20.374;2023-08-06T10:43:42;2.85;;;1.40;;
60076;SDS011;45950;45.208;20.374;2023-08-06T10:46:10;2.20;;;1.48;;
60076;SDS011;45950;45.208;20.374;2023-08-06T10:48:37;4.15;;;1.20;;
60076;SDS011;45950;45.208;20.374;2023-08-06T10:51:07;1.95;;;1.40;;
60076;SDS011;45950;45.208;20.374;2023-08-06T10:53:35;2.95;;;1.40;;
60076;SDS011;45950;45.208;20.374;2023-08-06T10:56:02;8.93;;;6.97;;
60076;SDS011;45950;45.208;20.374;2023-08-06T10:58:38;6.57;;;5.20;;
60076;SDS011;45950;45.208;20.374;2023-08-06T11:01:04;1.90;;;1.30;;
60076;SDS011;45950;45.208;20.374;2023-08-06T11:03:33;2.00;;;1.80;;
60076;SDS011;45950;45.208;20.374;2023-08-06T11:06:00;6.25;;;4.35;;
60076;SDS011;45950;45.208;20.374;2023-08-06T11:08:29;3.08;;;2.15;;
60076;SDS011;45950;45.208;20.374;2023-08-06T11:10:57;25.58;;;19.13;;
60076;SDS011;45950;45.208;20.374;2023-08-06T11:13:33;3.22;;;2.38;;
60076;SDS011;45950;45.208;20.374;2023-08-06T11:16:00;1.63;;;1.13;;
60076;SDS011;45950;45.208;20.374;2023-08-06T11:18:26;3.42;;;2.72;;
60076;SDS011;45950;45.208;20.374;2023-08-06T11:20:53;2.50;;;1.42;;
60076;SDS011;45950;45.208;20.374;2023-08-06T11:23:20;1.90;;;1.40;;
60076;SDS011;45950;45.208;20.374;2023-08-06T11:25:46;2.10;;;1.08;;
60076;SDS011;45950;45.208;20.374;2023-08-06T11:28:14;2.08;;;1.75;;
60076;SDS011;45950;45.208;20.374;2023-08-06T11:30:41;2.95;;;1.20;;
60076;SDS011;45950;45.208;20.374;2023-08-06T11:33:08;2.90;;;1.92;;
60076;SDS011;45950;45.208;20.374;2023-08-06T11:35:40;1.75;;;1.20;;
60076;SDS011;45950;45.208;20.374;2023-08-06T11:38:07;5.20;;;4.00;;
60076;SDS011;45950;45.208;20.374;2023-08-06T11:40:39;3.83;;;2.22;;
60076;SDS011;45950;45.208;20.374;2023-08-06T11:43:06;3.25;;;2.03;;
60076;SDS011;45950;45.208;20.374;2023-08-06T11:45:37;2.95;;;2.00;;
60076;SDS011;45950;45.208;20.374;2023-08-06T11:48:04;23.15;;;9.77;;
60076;SDS011;45950;45.208;20.374;2023-08-06T11:50:36;1.40;;;0.98;;
60076;SDS011;45950;45.208;20.374;2023-08-06T11:53:04;2.50;;;1.00;;
60076;SDS011;45950;45.208;20.374;2023-08-06T11:55:30;1.33;;;1.00;;
60076;SDS011;45950;45.208;20.374;2023-08-06T11:57:57;3.03;;;1.02;;
60076;SDS011;45950;45.208;20.374;2023-08-06T12:00:24;1.67;;;1.10;;
60076;SDS011;45950;45.208;20.374;2023-08-06T12:02:55;1.48;;;0.93;;
60076;SDS011;45950;45.208;20.374;2023-08-06T12:05:22;2.25;;;1.10;;
60076;SDS011;45950;45.208;20.374;2023-08-06T12:07:50;0.90;;;0.73;;
60076;SDS011;45950;45.208;20.374;2023-08-06T12:10:34;1.05;;;0.90;;
60076;SDS011;45950;45.208;20.374;2023-08-06T12:13:00;2.33;;;0.90;;
60076;SDS011;45950;45.208;20.374;2023-08-06T12:15:27;1.70;;;1.30;;
60076;SDS011;45950;45.208;20.374;2023-08-06T12:17:55;1.73;;;0.90;;
60076;SDS011;45950;45.208;20.374;2023-08-06T12:20:29;1.58;;;1.00;;
60076;SDS011;45950;45.208;20.374;2023-08-06T12:22:56;1.10;;;0.80;;
60076;SDS011;45950;45.208;20.374;2023-08-06T12:25:22;2.90;;;0.82;;
60076;SDS011;45950;45.208;20.374;2023-08-06T12:30:50;1.60;;;1.10;;
60076;SDS011;45950;45.208;20.374;2023-08-06T12:33:21;2.13;;;0.90;;
60076;SDS011;45950;45.208;20.374;2023-08-06T12:38:51;1.67;;;1.00;;
60076;SDS011;45950;45.208;20.374;2023-08-06T12:41:18;1.15;;;0.70;;
60076;SDS011;45950;45.208;20.374;2023-08-06T12:43:44;1.45;;;0.90;;
60076;SDS011;45950;45.208;20.374;2023-08-06T12:46:11;1.80;;;1.08;;
60076;SDS011;45950;45.208;20.374;2023-08-06T12:48:39;1.25;;;0.95;;
60076;SDS011;45950;45.208;20.374;2023-08-06T12:51:07;1.40;;;0.90;;
60076;SDS011;45950;45.208;20.374;2023-08-06T12:53:34;1.40;;;1.10;;
60076;SDS011;45950;45.208;20.374;2023-08-06T12:58:46;2.67;;;0.90;;
60076;SDS011;45950;45.208;20.374;2023-08-06T13:01:13;10.15;;;1.15;;
60076;SDS011;45950;45.208;20.374;2023-08-06T13:03:41;5.00;;;1.77;;
60076;SDS011;45950;45.208;20.374;2023-08-06T13:06:08;4.13;;;1.02;;
60076;SDS011;45950;45.208;20.374;2023-08-06T13:10:01;2.15;;;1.20;;
60076;SDS011;45950;45.208;20.374;2023-08-06T13:12:27;2.35;;;1.00;;
60076;SDS011;45950;45.208;20.374;2023-08-06T13:14:54;3.63;;;1.50;;
60076;SDS011;45950;45.208;20.374;2023-08-06T13:17:22;1.88;;;1.02;;
60076;SDS011;45950;45.208;20.374;2023-08-06T13:19:49;2.55;;;0.98;;
60076;SDS011;45950;45.208;20.374;2023-08-06T13:22:15;2.85;;;1.30;;
60076;SDS011;45950;45.208;20.374;2023-08-06T13:24:42;3.15;;;1.42;;
60076;SDS011;45950;45.208;20.374;2023-08-06T13:27:10;4.75;;;1.48;;
60076;SDS011;45950;45.208;20.374;2023-08-06T13:29:36;3.40;;;1.58;;
60076;SDS011;45950;45.208;20.374;2023-08-06T13:32:03;2.42;;;1.30;;
60076;SDS011;45950;45.208;20.374;2023-08-06T13:34:30;3.25;;;1.13;;
60076;SDS011;45950;45.208;20.374;2023-08-06T13:36:56;1.67;;;0.90;;
60076;SDS011;45950;45.208;20.374;2023-08-06T13:39:23;3.22;;;0.90;;
60076;SDS011;45950;45.208;20.374;2023-08-06T13:41:50;4.00;;;0.90;;
60076;SDS011;45950;45.208;20.374;2023-08-06T13:44:36;1.23;;;0.82;;
60076;SDS011;45950;45.208;20.374;2023-08-06T13:47:03;1.23;;;0.90;;
60076;SDS011;45950;45.208;20.374;2023-08-06T13:49:29;1.48;;;0.70;;
60076;SDS011;45950;45.208;20.374;2023-08-06T13:51:56;1.77;;;0.70;;
60076;SDS011;45950;45.208;20.374;2023-08-06T13:54:40;1.48;;;0.70;;
60076;SDS011;45950;45.208;20.374;2023-08-06T13:57:06;1.23;;;0.73;;
60076;SDS011;45950;45.208;20.374;2023-08-06T13:59:33;1.00;;;0.60;;
60076;SDS011;45950;45.208;20.374;2023-08-06T14:02:01;0.95;;;0.80;;
60076;SDS011;45950;45.208;20.374;2023-08-06T14:04:27;0.47;;;0.47;;
60076;SDS011;45950;45.208;20.374;2023-08-06T14:06:54;1.10;;;0.45;;
60076;SDS011;45950;45.208;20.374;2023-08-06T14:09:20;1.02;;;0.52;;
60076;SDS011;45950;45.208;20.374;2023-08-06T14:11:47;1.08;;;0.75;;
60076;SDS011;45950;45.208;20.374;2023-08-06T14:14:13;0.40;;;0.40;;
60076;SDS011;45950;45.208;20.374;2023-08-06T14:16:40;2.00;;;0.80;;
60076;SDS011;45950;45.208;20.374;2023-08-06T14:19:08;1.15;;;0.60;;
60076;SDS011;45950;45.208;20.374;2023-08-06T14:21:35;1.17;;;0.70;;
60076;SDS011;45950;45.208;20.374;2023-08-06T14:24:01;0.75;;;0.50;;
60076;SDS011;45950;45.208;20.374;2023-08-06T14:26:28;1.52;;;0.75;;
60076;SDS011;45950;45.208;20.374;2023-08-06T14:28:54;1.25;;;0.70;;
60076;SDS011;45950;45.208;20.374;2023-08-06T14:31:20;1.27;;;0.80;;
60076;SDS011;45950;45.208;20.374;2023-08-06T14:33:47;1.75;;;1.02;;
60076;SDS011;45950;45.208;20.374;2023-08-06T14:36:15;1.05;;;0.88;;
60076;SDS011;45950;45.208;20.374;2023-08-06T14:38:41;0.52;;;0.50;;
60076;SDS011;45950;45.208;20.374;2023-08-06T14:41:08;0.77;;;0.60;;
60076;SDS011;45950;45.208;20.374;2023-08-06T14:43:34;1.05;;;0.80;;
60076;SDS011;45950;45.208;20.374;2023-08-06T14:46:01;1.92;;;1.05;;
60076;SDS011;45950;45.208;20.374;2023-08-06T14:48:28;1.40;;;0.95;;
60076;SDS011;45950;45.208;20.374;2023-08-06T14:50:54;3.08;;;1.20;;
60076;SDS011;45950;45.208;20.374;2023-08-06T14:53:22;1.00;;;0.68;;
60076;SDS011;45950;45.208;20.374;2023-08-06T14:58:52;3.10;;;0.70;;
60076;SDS011;45950;45.208;20.374;2023-08-06T15:01:20;0.95;;;0.63;;
60076;SDS011;45950;45.208;20.374;2023-08-06T15:03:46;1.17;;;0.88;;
60076;SDS011;45950;45.208;20.374;2023-08-06T15:06:13;1.50;;;0.80;;
60076;SDS011;45950;45.208;20.374;2023-08-06T15:08:41;2.47;;;0.80;;